createdAt,value
2023-04-10T00:00:09.989Z,7.32
2023-04-10T00:02:36.980Z,7.00
2023-04-10T00:05:06.532Z,7.00
2023-04-10T00:07:33.185Z,8.02
2023-04-10T00:09:59.675Z,7.85
2023-04-10T00:12:26.212Z,6.97
2023-04-10T00:14:52.733Z,8.70
2023-04-10T00:17:19.213Z,8.32
2023-04-10T00:19:45.750Z,8.00
2023-04-10T00:22:13.888Z,8.60
2023-04-10T00:24:40.591Z,8.25
2023-04-10T00:27:07.068Z,7.53
2023-04-10T00:29:33.675Z,8.40
2023-04-10T00:32:00.241Z,7.97
2023-04-10T00:34:26.738Z,8.50
2023-04-10T00:36:53.244Z,8.50
2023-04-10T00:39:21.046Z,8.35
2023-04-10T00:41:47.557Z,7.68
2023-04-10T00:44:14.062Z,7.75
2023-04-10T00:46:41.193Z,8.13
2023-04-10T00:49:08.225Z,8.15
2023-04-10T00:51:34.791Z,9.05
2023-04-10T00:54:01.370Z,8.00
2023-04-10T00:56:30.536Z,7.70
2023-04-10T00:58:57.039Z,8.38
2023-04-10T01:01:23.586Z,8.13
2023-04-10T01:03:50.867Z,8.60
2023-04-10T01:06:26.862Z,8.77
2023-04-10T01:09:00.583Z,8.25
2023-04-10T01:11:39.608Z,8.18
2023-04-10T01:14:14.366Z,7.60
2023-04-10T01:16:48.019Z,8.35
2023-04-10T01:21:45.772Z,7.97
2023-04-10T01:24:26.042Z,8.50
2023-04-10T01:27:09.653Z,8.25
2023-04-10T01:29:43.036Z,7.65
2023-04-10T01:32:13.632Z,8.63
2023-04-10T01:34:43.852Z,8.77
2023-04-10T01:37:16.433Z,7.50
2023-04-10T01:39:45.273Z,7.53
2023-04-10T01:42:14.785Z,7.78
2023-04-10T01:44:46.256Z,8.40
2023-04-10T01:47:15.135Z,8.00
2023-04-10T01:49:44.816Z,8.23
2023-04-10T01:52:12.933Z,8.77
2023-04-10T01:54:39.507Z,8.05
2023-04-10T01:57:06.160Z,8.10
2023-04-10T01:59:32.738Z,8.48
2023-04-10T02:02:01.252Z,8.23
2023-04-10T02:04:28.148Z,8.65
2023-04-10T02:07:02.519Z,7.63
2023-04-10T02:09:40.399Z,8.38
2023-04-10T02:12:13.106Z,7.00
2023-04-10T02:14:43.989Z,8.80
2023-04-10T02:17:14.673Z,8.02
2023-04-10T02:19:42.850Z,8.13
2023-04-10T02:22:09.621Z,7.78
2023-04-10T02:24:36.133Z,8.25
2023-04-10T02:27:02.649Z,8.23
2023-04-10T02:29:29.156Z,7.47
2023-04-10T02:31:55.960Z,7.32
2023-04-10T02:34:23.776Z,7.10
2023-04-10T02:36:50.270Z,7.28
2023-04-10T02:39:16.775Z,7.03
2023-04-10T02:41:43.253Z,6.90
2023-04-10T02:44:09.747Z,7.57
2023-04-10T02:46:36.252Z,7.43
2023-04-10T02:49:02.770Z,7.00
2023-04-10T02:51:34.596Z,7.88
2023-04-10T02:54:01.114Z,6.72
2023-04-10T02:56:27.563Z,7.80
2023-04-10T02:58:54.118Z,7.03
2023-04-10T03:01:20.645Z,7.13
2023-04-10T03:03:47.225Z,7.22
2023-04-10T03:06:13.739Z,7.40
2023-04-10T03:08:41.556Z,7.15
2023-04-10T03:11:08.502Z,7.45
2023-04-10T03:13:34.991Z,7.47
2023-04-10T03:16:01.601Z,7.18
2023-04-10T03:18:28.116Z,7.65
2023-04-10T03:20:54.596Z,7.63
2023-04-10T03:23:21.137Z,6.90
2023-04-10T03:25:51.330Z,6.90
2023-04-10T03:28:17.871Z,7.93
2023-04-10T03:30:44.386Z,7.47
2023-04-10T03:33:10.859Z,6.80
2023-04-10T03:35:37.384Z,7.55
2023-04-10T03:38:03.937Z,6.60
2023-04-10T03:40:30.433Z,7.32
2023-04-10T03:42:58.411Z,6.90
2023-04-10T03:45:24.891Z,6.68
2023-04-10T03:47:52.319Z,7.05
2023-04-10T03:50:19.095Z,7.00
2023-04-10T03:52:45.708Z,6.82
2023-04-10T03:55:12.268Z,6.47
2023-04-10T03:57:38.752Z,7.00
2023-04-10T04:00:08.137Z,7.45
2023-04-10T04:02:34.842Z,7.05
2023-04-10T04:05:01.588Z,7.10
2023-04-10T04:07:28.124Z,7.18
2023-04-10T04:09:56.391Z,7.07
2023-04-10T04:12:23.160Z,7.30
2023-04-10T04:14:49.683Z,7.90
2023-04-10T04:17:17.719Z,7.47
2023-04-10T04:19:44.275Z,7.45
2023-04-10T04:22:11.171Z,7.05
2023-04-10T04:24:37.664Z,7.32
2023-04-10T04:27:04.191Z,7.05
2023-04-10T04:29:30.663Z,6.75
2023-04-10T04:31:57.218Z,7.00
2023-04-10T04:34:25.157Z,7.68
2023-04-10T04:36:51.675Z,6.63
2023-04-10T04:39:18.260Z,7.50
2023-04-10T04:41:44.782Z,6.57
2023-04-10T04:44:11.256Z,7.40
2023-04-10T04:46:37.739Z,7.03
2023-04-10T04:49:04.224Z,6.97
2023-04-10T04:51:32.053Z,6.43
2023-04-10T04:53:58.484Z,7.80
2023-04-10T04:56:25.000Z,7.30
2023-04-10T04:58:51.589Z,7.25
2023-04-10T05:01:18.165Z,7.45
2023-04-10T05:03:44.843Z,7.22
2023-04-10T05:06:11.482Z,6.80
2023-04-10T05:08:39.353Z,6.78
2023-04-10T05:11:06.515Z,6.57
2023-04-10T05:13:33.003Z,7.32
2023-04-10T05:15:59.550Z,6.88
2023-04-10T05:18:26.089Z,6.72
2023-04-10T05:20:52.609Z,6.97
2023-04-10T05:23:19.123Z,7.20
2023-04-10T05:25:46.955Z,6.93
2023-04-10T05:28:13.521Z,7.43
2023-04-10T05:30:40.100Z,6.82
2023-04-10T05:33:06.685Z,6.40
2023-04-10T05:35:33.275Z,7.20
2023-04-10T05:37:59.824Z,6.70
2023-04-10T05:40:26.496Z,6.88
2023-04-10T05:42:54.424Z,7.35
2023-04-10T05:45:20.929Z,7.75
2023-04-10T05:47:47.453Z,7.50
2023-04-10T05:50:13.950Z,7.05
2023-04-10T05:52:40.495Z,7.05
2023-04-10T05:55:08.410Z,7.28
2023-04-10T05:57:35.038Z,7.63
2023-04-10T06:00:03.321Z,6.90
2023-04-10T06:02:30.035Z,7.13
2023-04-10T06:04:56.774Z,7.43
2023-04-10T06:07:23.350Z,7.30
2023-04-10T06:09:49.913Z,7.88
2023-04-10T06:12:16.415Z,7.40
2023-04-10T06:14:42.943Z,7.68
2023-04-10T06:17:10.781Z,7.78
2023-04-10T06:19:37.259Z,7.78
2023-04-10T06:22:03.760Z,7.75
2023-04-10T06:24:30.272Z,7.85
2023-04-10T06:26:56.805Z,7.70
2023-04-10T06:29:23.439Z,6.72
2023-04-10T06:31:49.981Z,7.85
2023-04-10T06:34:17.900Z,7.22
2023-04-10T06:36:44.385Z,7.30
2023-04-10T06:39:10.994Z,7.90
2023-04-10T06:41:37.513Z,7.78
2023-04-10T06:44:04.218Z,7.35
2023-04-10T06:46:30.819Z,7.80
2023-04-10T06:48:57.348Z,7.53
2023-04-10T06:51:25.345Z,7.53
2023-04-10T06:53:51.799Z,7.95
2023-04-10T06:56:18.344Z,9.10
2023-04-10T06:58:44.857Z,8.00
2023-04-10T07:01:11.400Z,8.00
2023-04-10T07:03:37.991Z,8.15
2023-04-10T07:06:04.795Z,7.25
2023-04-10T07:08:32.595Z,6.68
2023-04-10T07:10:59.175Z,7.15
2023-04-10T07:13:25.733Z,8.13
2023-04-10T07:15:52.285Z,7.32
2023-04-10T07:18:18.974Z,7.68
2023-04-10T07:20:45.473Z,7.10
2023-04-10T07:23:11.990Z,7.03
2023-04-10T07:25:41.198Z,7.47
2023-04-10T07:28:07.708Z,7.15
2023-04-10T07:30:34.219Z,7.38
2023-04-10T07:33:00.818Z,8.25
2023-04-10T07:35:27.468Z,7.20
2023-04-10T07:37:53.965Z,7.32
2023-04-10T07:40:20.549Z,6.90
2023-04-10T07:42:48.372Z,6.80
2023-04-10T07:45:15.035Z,6.47
2023-04-10T07:47:41.548Z,6.20
2023-04-10T07:50:08.968Z,6.78
2023-04-10T07:52:35.565Z,7.00
2023-04-10T07:55:03.219Z,7.25
2023-04-10T07:57:29.857Z,7.30
2023-04-10T07:59:57.758Z,6.78
2023-04-10T08:02:24.466Z,7.93
2023-04-10T08:04:51.224Z,7.03
2023-04-10T08:07:21.301Z,7.43
2023-04-10T08:09:47.818Z,6.63
2023-04-10T08:12:14.286Z,6.90
2023-04-10T08:14:40.736Z,7.43
2023-04-10T08:17:08.607Z,6.70
2023-04-10T08:19:36.246Z,7.65
2023-04-10T08:22:02.842Z,7.72
2023-04-10T08:24:29.303Z,6.95
2023-04-10T08:26:55.809Z,7.45
2023-04-10T08:31:53.675Z,7.32
2023-04-10T08:34:21.520Z,6.40
2023-04-10T08:36:48.027Z,6.35
2023-04-10T08:39:14.497Z,6.43
2023-04-10T08:41:41.285Z,6.28
2023-04-10T08:44:07.811Z,5.95
2023-04-10T08:46:36.766Z,6.07
2023-04-10T08:49:04.661Z,6.82
2023-04-10T08:51:39.107Z,7.07
2023-04-10T08:54:07.380Z,7.28
2023-04-10T08:56:35.542Z,6.60
2023-04-10T08:59:02.582Z,7.07
2023-04-10T09:01:29.262Z,6.78
2023-04-10T09:03:56.372Z,6.72
2023-04-10T09:06:23.196Z,7.10
2023-04-10T09:08:51.015Z,6.28
2023-04-10T09:11:17.513Z,7.50
2023-04-10T09:13:44.553Z,7.43
2023-04-10T09:16:11.918Z,7.25
2023-04-10T09:18:43.899Z,7.90
2023-04-10T09:21:11.594Z,6.82
2023-04-10T09:23:38.314Z,7.10
2023-04-10T09:26:22.429Z,7.15
2023-04-10T09:28:59.628Z,6.50
2023-04-10T09:31:32.828Z,6.78
2023-04-10T09:34:13.816Z,7.22
2023-04-10T09:36:40.882Z,6.40
2023-04-10T09:39:08.637Z,6.55
2023-04-10T09:41:47.686Z,6.30
2023-04-10T09:44:14.307Z,7.10
2023-04-10T09:46:40.867Z,6.30
2023-04-10T09:49:07.514Z,6.40
2023-04-10T09:51:35.264Z,6.35
2023-04-10T09:54:02.383Z,5.47
2023-04-10T09:56:29.148Z,4.65
2023-04-10T09:58:58.928Z,4.97
2023-04-10T10:01:26.489Z,5.15
2023-04-10T10:03:55.091Z,5.18
2023-04-10T10:06:22.152Z,4.75
2023-04-10T10:08:49.398Z,4.82
2023-04-10T10:11:18.902Z,5.28
2023-04-10T10:13:49.142Z,4.60
2023-04-10T10:16:21.768Z,4.28
2023-04-10T10:18:55.014Z,4.70
2023-04-10T10:21:23.117Z,4.35
2023-04-10T10:23:50.401Z,4.68
2023-04-10T10:26:18.051Z,4.80
2023-04-10T10:28:47.281Z,4.38
2023-04-10T10:31:14.864Z,4.65
2023-04-10T10:33:44.038Z,4.43
2023-04-10T10:36:11.440Z,4.72
2023-04-10T10:38:41.594Z,4.90
2023-04-10T10:41:13.694Z,4.82
2023-04-10T10:43:50.532Z,4.53
2023-04-10T10:46:21.506Z,4.95
2023-04-10T10:48:59.294Z,4.38
2023-04-10T10:51:43.892Z,5.10
2023-04-10T10:54:28.610Z,4.35
2023-04-10T10:56:55.154Z,4.47
2023-04-10T10:59:54.608Z,4.35
2023-04-10T11:02:21.194Z,4.35
2023-04-10T11:04:49.329Z,4.05
2023-04-10T11:07:16.678Z,4.25
2023-04-10T11:09:47.771Z,4.78
2023-04-10T11:12:15.336Z,4.50
2023-04-10T11:14:43.348Z,4.20
2023-04-10T11:17:10.266Z,4.00
2023-04-10T11:20:00.481Z,4.13
2023-04-10T11:22:27.468Z,4.15
2023-04-10T11:24:55.673Z,3.67
2023-04-10T11:27:38.450Z,3.60
2023-04-10T11:30:25.850Z,3.70
2023-04-10T11:32:52.444Z,3.50
2023-04-10T11:35:20.833Z,3.85
2023-04-10T11:37:47.380Z,3.90
2023-04-10T11:40:13.954Z,4.18
2023-04-10T11:42:40.510Z,3.63
2023-04-10T11:45:28.255Z,3.28
2023-04-10T11:47:55.286Z,3.40
2023-04-10T11:50:23.211Z,3.50
2023-04-10T11:52:50.190Z,3.78
2023-04-10T11:55:16.875Z,3.67
2023-04-10T11:57:44.428Z,3.70
2023-04-10T12:00:11.884Z,3.70
2023-04-10T12:02:50.986Z,3.33
2023-04-10T12:05:17.809Z,2.80
2023-04-10T12:07:45.814Z,2.88
2023-04-10T12:10:12.464Z,2.90
2023-04-10T12:12:39.029Z,2.83
2023-04-10T12:15:26.708Z,2.53
2023-04-10T12:17:53.384Z,2.50
2023-04-10T12:20:20.178Z,2.75
2023-04-10T12:22:48.074Z,2.53
2023-04-10T12:25:14.763Z,2.70
2023-04-10T12:27:48.789Z,2.72
2023-04-10T12:30:15.295Z,2.75
2023-04-10T12:32:50.579Z,2.40
2023-04-10T12:35:17.108Z,2.53
2023-04-10T12:37:48.921Z,2.53
2023-04-10T12:40:15.486Z,2.80
2023-04-10T12:42:42.570Z,2.95
2023-04-10T12:45:10.351Z,2.67
2023-04-10T12:47:44.262Z,2.60
2023-04-10T12:50:15.226Z,2.72
2023-04-10T12:52:43.562Z,2.60
2023-04-10T12:55:16.344Z,2.90
2023-04-10T12:57:44.380Z,3.35
2023-04-10T13:00:12.674Z,2.25
2023-04-10T13:02:40.267Z,2.63
2023-04-10T13:05:09.159Z,2.40
2023-04-10T13:07:36.258Z,2.28
2023-04-10T13:10:03.358Z,2.67
2023-04-10T13:12:31.347Z,2.55
2023-04-10T13:14:57.879Z,2.35
2023-04-10T13:17:25.092Z,2.20
2023-04-10T13:19:52.238Z,2.10
2023-04-10T13:22:18.879Z,1.92
2023-04-10T13:24:45.772Z,2.30
2023-04-10T13:27:12.754Z,2.20
2023-04-10T13:29:42.426Z,2.13
2023-04-10T13:32:08.978Z,2.00
2023-04-10T13:34:35.808Z,1.83
2023-04-10T13:37:02.807Z,2.08
2023-04-10T13:39:31.234Z,2.10
2023-04-10T13:41:58.298Z,2.13
2023-04-10T13:44:25.058Z,1.83
2023-04-10T13:46:53.137Z,1.88
2023-04-10T13:49:20.492Z,1.77
2023-04-10T13:51:47.569Z,1.63
2023-04-10T13:54:14.616Z,1.45
2023-04-10T13:56:41.110Z,2.00
2023-04-10T13:59:07.791Z,1.80
2023-04-10T14:01:34.434Z,2.40
2023-04-10T14:04:02.696Z,1.60
2023-04-10T14:06:29.243Z,1.80
2023-04-10T14:08:56.087Z,1.98
2023-04-10T14:11:22.766Z,1.80
2023-04-10T14:13:49.299Z,1.75
2023-04-10T14:16:15.855Z,2.25
2023-04-10T14:18:42.355Z,2.00
2023-04-10T14:21:10.274Z,1.90
2023-04-10T14:23:36.831Z,1.75
2023-04-10T14:26:05.141Z,2.00
2023-04-10T14:28:31.619Z,1.80
2023-04-10T14:30:58.126Z,1.77
2023-04-10T14:33:24.655Z,1.70
2023-04-10T14:35:51.182Z,2.03
2023-04-10T14:38:19.102Z,2.00
2023-04-10T14:40:45.598Z,1.80
2023-04-10T14:43:12.134Z,2.00
2023-04-10T14:45:38.676Z,1.85
2023-04-10T14:48:05.291Z,1.80
2023-04-10T14:50:32.160Z,1.92
2023-04-10T14:52:58.852Z,2.00
2023-04-10T14:55:28.408Z,2.10
2023-04-10T14:57:56.551Z,1.90
2023-04-10T15:00:24.467Z,2.13
2023-04-10T15:02:51.207Z,6.28
2023-04-10T15:05:18.072Z,4.63
2023-04-10T15:07:44.654Z,2.33
2023-04-10T15:10:11.187Z,2.08
2023-04-10T15:12:39.211Z,2.45
2023-04-10T15:15:07.170Z,2.10
2023-04-10T15:17:33.717Z,2.53
2023-04-10T15:20:00.510Z,2.20
2023-04-10T15:22:27.068Z,2.30
2023-04-10T15:24:53.570Z,2.13
2023-04-10T15:27:20.184Z,2.60
2023-04-10T15:29:48.468Z,2.30
2023-04-10T15:32:15.071Z,2.22
2023-04-10T15:34:41.619Z,2.15
2023-04-10T15:37:08.107Z,2.45
2023-04-10T15:39:35.532Z,1.70
2023-04-10T15:42:02.070Z,2.25
2023-04-10T15:44:28.808Z,2.10
2023-04-10T15:46:56.664Z,2.20
2023-04-10T15:49:33.922Z,2.40
2023-04-10T15:52:03.508Z,2.45
2023-04-10T15:54:30.077Z,1.98
2023-04-10T15:56:57.208Z,2.17
2023-04-10T15:59:23.798Z,2.72
2023-04-10T16:01:50.408Z,2.15
2023-04-10T16:04:18.496Z,2.33
2023-04-10T16:06:45.118Z,2.22
2023-04-10T16:09:24.319Z,2.20
2023-04-10T16:11:52.981Z,2.40
2023-04-10T16:14:19.552Z,2.10
2023-04-10T16:16:46.350Z,2.50
2023-04-10T16:19:12.958Z,2.10
2023-04-10T16:21:40.817Z,2.10
2023-04-10T16:24:07.645Z,2.30
2023-04-10T16:26:34.220Z,2.05
2023-04-10T16:29:00.713Z,1.70
2023-04-10T16:31:27.302Z,1.60
2023-04-10T16:33:53.880Z,1.73
2023-04-10T16:36:20.388Z,1.67
2023-04-10T16:38:48.241Z,1.38
2023-04-10T16:41:14.849Z,1.77
2023-04-10T16:43:41.360Z,1.23
2023-04-10T16:46:07.837Z,1.70
2023-04-10T16:48:36.189Z,1.27
2023-04-10T16:51:02.961Z,1.90
2023-04-10T16:53:29.446Z,1.80
2023-04-10T16:56:03.540Z,1.80
2023-04-10T16:58:31.281Z,1.80
2023-04-10T17:00:57.886Z,1.50
2023-04-10T17:03:24.527Z,2.00
2023-04-10T17:05:51.100Z,1.83
2023-04-10T17:08:17.609Z,2.03
2023-04-10T17:10:44.091Z,1.80
2023-04-10T17:13:11.913Z,1.85
2023-04-10T17:15:38.472Z,1.88
2023-04-10T17:18:05.053Z,1.63
2023-04-10T17:20:35.387Z,1.67
2023-04-10T17:23:01.931Z,1.88
2023-04-10T17:25:28.507Z,2.03
2023-04-10T17:27:55.039Z,1.83
2023-04-10T17:30:22.862Z,1.92
2023-04-10T17:32:49.524Z,1.85
2023-04-10T17:35:16.243Z,2.22
2023-04-10T17:37:42.752Z,2.20
2023-04-10T17:40:11.210Z,2.15
2023-04-10T17:42:37.727Z,2.63
2023-04-10T17:45:05.043Z,2.90
2023-04-10T17:47:32.942Z,3.00
2023-04-10T17:49:59.526Z,3.20
2023-04-10T17:52:26.074Z,2.78
2023-04-10T17:54:52.622Z,3.05
2023-04-10T17:57:19.167Z,3.50
2023-04-10T17:59:45.769Z,2.92
2023-04-10T18:02:12.325Z,3.03
2023-04-10T18:04:40.177Z,2.70
2023-04-10T18:07:06.690Z,2.30
2023-04-10T18:09:33.214Z,2.33
2023-04-10T18:11:59.746Z,2.33
2023-04-10T18:14:26.298Z,2.03
2023-04-10T18:16:53.060Z,2.10
2023-04-10T18:19:19.622Z,1.98
2023-04-10T18:21:47.452Z,1.70
2023-04-10T18:24:13.948Z,1.88
2023-04-10T18:26:40.567Z,1.65
2023-04-10T18:29:07.824Z,1.75
2023-04-10T18:31:34.358Z,1.75
2023-04-10T18:34:07.794Z,1.60
2023-04-10T18:36:35.119Z,1.50
2023-04-10T18:39:03.113Z,1.30
2023-04-10T18:41:29.631Z,1.27
2023-04-10T18:44:03.995Z,1.02
2023-04-10T18:46:31.859Z,1.40
2023-04-10T18:48:58.408Z,1.15
2023-04-10T18:51:25.114Z,1.50
2023-04-10T18:53:51.586Z,1.13
2023-04-10T18:56:19.395Z,1.35
2023-04-10T18:58:47.590Z,1.58
2023-04-10T19:01:16.175Z,1.52
2023-04-10T19:03:42.893Z,1.48
2023-04-10T19:06:10.336Z,1.40
2023-04-10T19:08:37.191Z,1.55
2023-04-10T19:11:04.364Z,1.17
2023-04-10T19:13:32.614Z,1.55
2023-04-10T19:16:00.099Z,1.15
2023-04-10T19:18:26.679Z,1.40
2023-04-10T19:20:54.290Z,1.48
2023-04-10T19:23:21.046Z,1.23
2023-04-10T19:25:51.411Z,1.15
2023-04-10T19:28:17.918Z,1.45
2023-04-10T19:30:45.747Z,1.05
2023-04-10T19:33:12.262Z,1.30
2023-04-10T19:35:38.785Z,1.20
2023-04-10T19:38:05.341Z,1.67
2023-04-10T19:40:31.816Z,1.70
2023-04-10T19:42:59.354Z,1.23
2023-04-10T19:45:26.042Z,1.33
2023-04-10T19:47:53.894Z,1.23
2023-04-10T19:50:20.658Z,1.17
2023-04-10T19:52:47.148Z,1.10
2023-04-10T19:55:13.663Z,1.05
2023-04-10T19:57:40.336Z,1.23
2023-04-10T20:00:08.364Z,0.90
2023-04-10T20:02:35.029Z,1.10
2023-04-10T20:05:03.202Z,0.82
2023-04-10T20:07:29.732Z,1.60
2023-04-10T20:09:56.264Z,0.80
2023-04-10T20:12:22.759Z,0.77
2023-04-10T20:14:49.234Z,0.70
2023-04-10T20:17:15.764Z,1.10
2023-04-10T20:19:42.296Z,0.88
2023-04-10T20:22:10.201Z,0.95
2023-04-10T20:24:36.668Z,0.60
2023-04-10T20:27:03.429Z,0.88
2023-04-10T20:29:29.963Z,0.80
2023-04-10T20:31:56.554Z,0.93
2023-04-10T20:34:23.069Z,0.75
2023-04-10T20:36:49.586Z,0.98
2023-04-10T20:39:17.652Z,0.77
2023-04-10T20:41:44.098Z,0.60
2023-04-10T20:44:10.644Z,0.70
2023-04-10T20:46:37.204Z,0.85
2023-04-10T20:49:03.745Z,1.08
2023-04-10T20:51:30.332Z,1.50
2023-04-10T20:53:56.850Z,1.55
2023-04-10T20:56:32.860Z,0.90
2023-04-10T20:59:06.990Z,0.90
2023-04-10T21:01:34.408Z,0.70
2023-04-10T21:04:01.093Z,0.90
2023-04-10T21:06:27.662Z,0.80
2023-04-10T21:08:54.364Z,1.13
2023-04-10T21:11:20.982Z,0.88
2023-04-10T21:13:49.100Z,1.05
2023-04-10T21:16:15.702Z,1.15
2023-04-10T21:18:42.265Z,1.23
2023-04-10T21:21:08.896Z,0.90
2023-04-10T21:23:35.496Z,1.25
2023-04-10T21:26:02.204Z,1.00
2023-04-10T21:28:28.800Z,1.38
2023-04-10T21:30:56.659Z,0.95
2023-04-10T21:33:23.152Z,1.08
2023-04-10T21:35:49.633Z,1.17
2023-04-10T21:38:16.152Z,1.30
2023-04-10T21:40:49.532Z,1.30
2023-04-10T21:43:16.011Z,1.30
2023-04-10T21:45:42.575Z,1.60
2023-04-10T21:48:10.467Z,1.23
2023-04-10T21:50:37.013Z,1.20
2023-04-10T21:53:03.578Z,1.67
2023-04-10T21:55:30.115Z,1.10
2023-04-10T21:57:56.719Z,1.23
2023-04-10T22:00:23.382Z,1.33
2023-04-10T22:02:50.246Z,1.15
2023-04-10T22:05:18.198Z,1.67
2023-04-10T22:07:44.669Z,1.30
2023-04-10T22:10:11.394Z,1.10
2023-04-10T22:12:37.921Z,1.73
2023-04-10T22:15:05.084Z,1.75
2023-04-10T22:17:31.633Z,1.23
2023-04-10T22:19:58.118Z,1.38
2023-04-10T22:22:25.985Z,2.10
2023-04-10T22:24:52.550Z,1.88
2023-04-10T22:27:19.104Z,1.42
2023-04-10T22:29:50.134Z,1.70
2023-04-10T22:32:22.991Z,1.20
2023-04-10T22:34:49.521Z,1.23
2023-04-10T22:37:16.006Z,1.13
2023-04-10T22:39:43.897Z,1.35
2023-04-10T22:42:10.368Z,1.42
2023-04-10T22:44:36.853Z,1.33
2023-04-10T22:47:03.423Z,1.55
2023-04-10T22:49:30.374Z,1.75
2023-04-10T22:51:56.858Z,1.75
2023-04-10T22:54:23.327Z,2.35
2023-04-10T22:56:51.209Z,1.70
2023-04-10T22:59:17.668Z,2.15
2023-04-10T23:01:44.228Z,2.38
2023-04-10T23:04:10.893Z,3.08
2023-04-10T23:06:37.453Z,1.98
2023-04-10T23:09:04.177Z,1.83
2023-04-10T23:11:30.718Z,2.17
2023-04-10T23:13:58.607Z,1.85
2023-04-10T23:16:25.109Z,1.38
2023-04-10T23:18:51.626Z,2.35
2023-04-10T23:21:18.090Z,1.33
2023-04-10T23:23:44.608Z,1.67
2023-04-10T23:26:11.255Z,2.35
2023-04-10T23:28:37.731Z,1.60
2023-04-10T23:31:06.201Z,2.80
2023-04-10T23:33:32.690Z,1.42
2023-04-10T23:35:59.231Z,1.75
2023-04-10T23:38:25.832Z,2.05
2023-04-10T23:40:52.330Z,2.53
2023-04-10T23:43:18.881Z,1.80
2023-04-10T23:45:45.374Z,1.65
2023-04-10T23:48:13.263Z,1.75
2023-04-10T23:50:39.867Z,1.83
2023-04-10T23:53:06.371Z,1.35
2023-04-10T23:55:32.945Z,1.55
2023-04-10T23:57:59.448Z,2.08
